Time;durP1;ratioP1;P1;durP2;ratioP2;P2;SDS_P1;SDS_P2;PMS_P1;PMS_P2;Temp;Humidity;BMP_temperature;BMP_pressure;BME280_temperature;BME280_humidity;BME280_pressure;Samples;Min_cycle;Max_cycle;Signal;HPM_P1;HPM_P2
2022/03/20 00:00:07;;;;;;;340.77;81.93;;;;;;;0.03;54.12;102036.22;339047;28;1307;-68
2022/03/20 00:00:17;;;;;;;340.98;83.45;;;;;;;0.03;54.15;102027.63;341674;28;972;-67
2022/03/20 00:00:28;;;;;;;340.83;83.63;;;;;;;0.02;53.78;102025.88;342562;28;2165;-67
2022/03/20 00:00:38;;;;;;;340.20;81.55;;;;;;;0.01;54.04;102025.00;343068;28;1069;-68
2022/03/20 00:00:54;;;;;;;342.37;81.47;;;;;;;0.01;54.30;102025.00;341359;28;1215;-67
2022/03/20 00:01:05;;;;;;;341.82;80.20;;;;;;;0.02;54.06;102031.03;344451;28;1295;-67
2022/03/20 00:01:16;;;;;;;340.97;81.03;;;;;;;0.01;53.88;102025.00;341757;28;1533;-67
2022/03/20 00:01:26;;;;;;;340.23;81.72;;;;;;;0.01;54.30;102030.13;338061;29;890;-67
2022/03/20 00:01:36;;;;;;;341.47;82.70;;;;;;;0.03;53.87;102033.66;342075;28;1941;-67
2022/03/20 00:01:47;;;;;;;340.77;81.57;;;;;;;0.03;54.52;102033.66;344569;28;1238;-67
2022/03/20 00:01:57;;;;;;;339.20;80.83;;;;;;;0.02;54.40;102031.03;344827;28;1354;-68
2022/03/20 00:02:08;;;;;;;337.98;80.18;;;;;;;0.04;53.96;102029.38;342338;28;873;-67
2022/03/20 00:02:18;;;;;;;337.27;79.30;;;;;;;0.03;54.48;102031.09;341911;28;1205;-67
2022/03/20 00:02:32;;;;;;;338.17;80.75;;;;;;;0.04;54.17;102035.41;343303;28;1221;-67
2022/03/20 00:02:42;;;;;;;339.42;81.75;;;;;;;0.01;54.18;102027.56;343430;28;931;-67
2022/03/20 00:02:53;;;;;;;340.27;83.37;;;;;;;0.01;54.59;102030.13;341776;28;830;-67
2022/03/20 00:03:09;;;;;;;340.90;82.85;;;;;;;0.00;54.22;102028.41;341985;28;909;-67
2022/03/20 00:03:21;;;;;;;339.83;81.90;;;;;;;0.00;54.57;102031.00;342118;28;1197;-67
2022/03/20 00:03:31;;;;;;;337.67;78.97;;;;;;;0.02;54.42;102026.75;339500;29;966;-67
2022/03/20 00:03:42;;;;;;;336.70;78.32;;;;;;;0.02;54.44;102029.31;340752;29;976;-66
2022/03/20 00:03:52;;;;;;;336.57;78.83;;;;;;;0.03;54.55;102023.38;341325;28;1049;-66
2022/03/20 00:04:03;;;;;;;338.80;81.10;;;;;;;0.04;54.53;102030.28;340460;28;3683;-67
2022/03/20 00:04:13;;;;;;;339.57;80.63;;;;;;;0.04;54.52;102029.38;340791;28;1221;-67
2022/03/20 00:04:23;;;;;;;340.13;80.85;;;;;;;0.04;54.97;102022.53;340650;29;889;-67
2022/03/20 00:04:34;;;;;;;340.07;80.97;;;;;;;0.04;54.69;102026.81;340786;29;897;-67
2022/03/20 00:04:44;;;;;;;341.13;81.78;;;;;;;0.04;54.42;102030.28;343609;28;806;-67
2022/03/20 00:04:55;;;;;;;341.37;82.27;;;;;;;0.04;54.91;102019.09;341056;28;1462;-67
2022/03/20 00:05:05;;;;;;;341.27;84.28;;;;;;;0.05;54.83;102026.88;340100;28;821;-68
2022/03/20 00:05:17;;;;;;;343.10;84.23;;;;;;;0.04;54.37;102025.13;342328;28;1933;-68
2022/03/20 00:05:27;;;;;;;343.83;84.53;;;;;;;0.03;54.28;102022.47;342160;28;1677;-68
2022/03/20 00:05:39;;;;;;;342.37;82.13;;;;;;;0.04;54.63;102029.38;339425;28;1345;-67
2022/03/20 00:05:49;;;;;;;340.42;82.43;;;;;;;0.04;54.85;102030.28;341947;28;1161;-67
2022/03/20 00:06:00;;;;;;;340.75;83.28;;;;;;;0.03;54.53;102027.63;342042;28;959;-67
2022/03/20 00:06:10;;;;;;;342.93;84.00;;;;;;;0.03;55.15;102025.94;342208;28;1694;-67
2022/03/20 00:06:21;;;;;;;342.95;82.82;;;;;;;0.01;55.15;102027.56;341933;28;1097;-67
2022/03/20 00:06:31;;;;;;;341.67;81.53;;;;;;;-0.01;54.91;102031.81;341628;28;1482;-67
2022/03/20 00:06:42;;;;;;;340.50;82.57;;;;;;;-0.06;55.40;102025.59;342023;28;972;-67
2022/03/20 00:06:52;;;;;;;341.70;82.88;;;;;;;-0.07;55.52;102026.41;344758;28;1341;-67
2022/03/20 00:07:03;;;;;;;341.77;82.87;;;;;;;-0.09;54.67;102028.03;344630;28;945;-67
2022/03/20 00:07:13;;;;;;;340.02;81.32;;;;;;;-0.08;55.17;102025.53;342999;28;951;-67
2022/03/20 00:07:23;;;;;;;338.83;80.33;;;;;;;-0.08;55.32;102025.53;339406;29;1254;-67
2022/03/20 00:07:34;;;;;;;339.60;79.95;;;;;;;-0.07;55.20;102029.84;343346;28;869;-68
2022/03/20 00:07:46;;;;;;;340.20;80.80;;;;;;;-0.07;54.86;102027.28;344540;28;849;-68
2022/03/20 00:07:56;;;;;;;340.17;81.50;;;;;;;-0.05;55.36;102033.38;343282;28;1649;-67
2022/03/20 00:08:11;;;;;;;339.27;81.68;;;;;;;-0.02;55.55;102024.91;339221;29;980;-67
2022/03/20 00:08:21;;;;;;;340.83;82.57;;;;;;;-0.01;54.90;102029.22;344468;28;1433;-67
2022/03/20 00:08:31;;;;;;;341.75;82.60;;;;;;;0.00;55.45;102034.41;343402;28;949;-67
2022/03/20 00:08:42;;;;;;;340.60;82.80;;;;;;;0.00;55.18;102023.28;342375;28;963;-67
2022/03/20 00:08:54;;;;;;;340.45;82.18;;;;;;;-0.01;55.30;102021.50;341891;28;949;-67
2022/03/20 00:09:04;;;;;;;339.13;82.00;;;;;;;-0.01;54.84;102024.97;338688;29;941;-67
2022/03/20 00:09:15;;;;;;;337.67;80.83;;;;;;;-0.02;55.10;102030.03;340951;28;1185;-67
2022/03/20 00:09:25;;;;;;;337.65;82.28;;;;;;;-0.02;55.19;102027.47;343149;28;1026;-67
2022/03/20 00:09:35;;;;;;;340.70;84.27;;;;;;;-0.03;54.91;102029.16;344552;28;1515;-67
2022/03/20 00:09:52;;;;;;;340.92;85.15;;;;;;;-0.04;54.92;102026.53;345912;28;1218;-67
2022/03/20 00:10:04;;;;;;;337.65;82.00;;;;;;;-0.07;55.27;102022.13;341720;28;1343;-67
2022/03/20 00:10:15;;;;;;;339.50;84.05;;;;;;;-0.09;55.10;102030.59;339245;29;1101;-68
2022/03/20 00:10:25;;;;;;;342.33;84.23;;;;;;;-0.09;54.91;102028.03;341854;28;925;-67
2022/03/20 00:10:36;;;;;;;342.23;84.00;;;;;;;-0.12;55.09;102027.91;343359;28;1034;-67
2022/03/20 00:10:48;;;;;;;342.38;83.43;;;;;;;-0.11;55.02;102027.97;343525;28;900;-67
2022/03/20 00:11:01;;;;;;;342.65;84.47;;;;;;;-0.10;55.30;102021.13;341796;28;1303;-67
2022/03/20 00:11:11;;;;;;;342.35;81.47;;;;;;;-0.11;55.29;102020.25;343277;28;1109;-67
2022/03/20 00:11:22;;;;;;;341.53;79.57;;;;;;;-0.11;54.96;102025.41;341893;28;1216;-67
2022/03/20 00:11:32;;;;;;;340.10;78.70;;;;;;;-0.10;55.14;102021.13;340250;28;1488;-67
2022/03/20 00:11:42;;;;;;;340.67;81.37;;;;;;;-0.11;54.63;102021.94;344290;28;946;-67
2022/03/20 00:11:53;;;;;;;342.85;82.43;;;;;;;-0.11;54.79;102030.53;344928;28;1012;-68
2022/03/20 00:12:04;;;;;;;343.83;83.30;;;;;;;-0.09;55.20;102022.88;343287;28;1419;-67
2022/03/20 00:12:14;;;;;;;342.98;81.53;;;;;;;-0.09;55.20;102022.88;343090;28;1374;-68
2022/03/20 00:12:25;;;;;;;342.70;81.93;;;;;;;-0.11;55.21;102029.66;341210;28;1318;-68
2022/03/20 00:12:36;;;;;;;342.30;82.38;;;;;;;-0.10;54.90;102021.13;340893;28;1019;-67
2022/03/20 00:12:46;;;;;;;343.77;84.33;;;;;;;-0.10;55.13;102021.13;343144;28;964;-67
2022/03/20 00:12:56;;;;;;;342.40;83.15;;;;;;;-0.10;55.11;102027.16;344556;28;873;-68
2022/03/20 00:13:10;;;;;;;341.50;82.63;;;;;;;-0.11;55.16;102021.94;343197;28;1531;-67
2022/03/20 00:13:21;;;;;;;339.15;80.32;;;;;;;-0.11;55.52;102021.94;339258;29;1051;-67
2022/03/20 00:13:32;;;;;;;340.70;80.82;;;;;;;-0.12;55.03;102023.63;341602;28;1296;-67
2022/03/20 00:13:44;;;;;;;341.87;82.57;;;;;;;-0.11;55.50;102019.38;341780;28;1421;-67
2022/03/20 00:13:54;;;;;;;339.95;82.28;;;;;;;-0.11;54.87;102019.38;341972;28;1328;-67
2022/03/20 00:14:04;;;;;;;337.77;79.70;;;;;;;-0.12;55.16;102017.63;342188;28;1055;-67
2022/03/20 00:14:15;;;;;;;337.67;80.47;;;;;;;-0.09;55.34;102022.88;341922;28;844;-67
2022/03/20 00:14:25;;;;;;;340.23;82.30;;;;;;;-0.07;55.00;102022.13;342191;28;1355;-67
2022/03/20 00:14:36;;;;;;;340.57;82.10;;;;;;;-0.06;55.25;102020.44;343314;28;901;-67
2022/03/20 00:14:46;;;;;;;338.13;79.60;;;;;;;-0.08;55.22;102022.94;343415;28;857;-67
2022/03/20 00:14:57;;;;;;;337.00;79.90;;;;;;;-0.08;55.28;102015.22;340682;28;1976;-68
2022/03/20 00:15:07;;;;;;;336.55;80.78;;;;;;;-0.09;55.44;102017.75;341541;28;1235;-67
2022/03/20 00:15:18;;;;;;;339.57;82.03;;;;;;;-0.08;54.96;102017.81;344050;28;884;-67
2022/03/20 00:15:30;;;;;;;340.05;81.63;;;;;;;-0.08;54.76;102020.38;344666;28;951;-67
2022/03/20 00:15:40;;;;;;;339.30;81.05;;;;;;;-0.07;55.29;102013.53;344492;28;1417;-67
2022/03/20 00:15:51;;;;;;;338.63;81.70;;;;;;;-0.06;55.27;102016.19;344723;28;995;-67
2022/03/20 00:16:03;;;;;;;338.65;80.90;;;;;;;-0.06;55.34;102017.88;340636;29;1126;-67
2022/03/20 00:16:13;;;;;;;338.98;79.95;;;;;;;-0.08;54.81;102015.22;340528;29;894;-68
2022/03/20 00:16:29;;;;;;;338.73;80.97;;;;;;;-0.07;54.86;102014.41;343088;28;1219;-68
2022/03/20 00:16:39;;;;;;;338.17;81.60;;;;;;;-0.05;55.30;102015.34;343182;28;1071;-67
2022/03/20 00:16:50;;;;;;;337.07;82.17;;;;;;;-0.06;55.19;102017.88;343355;28;1325;-67
2022/03/20 00:17:00;;;;;;;335.65;81.63;;;;;;;-0.04;55.08;102013.66;343295;28;1270;-67
2022/03/20 00:17:12;;;;;;;336.73;81.07;;;;;;;-0.04;55.00;102016.25;343249;28;892;-67
2022/03/20 00:17:23;;;;;;;338.40;79.47;;;;;;;-0.06;55.10;102017.88;344750;28;885;-68
2022/03/20 00:17:34;;;;;;;340.90;79.63;;;;;;;-0.06;55.26;102012.72;344626;28;1081;-68
2022/03/20 00:17:44;;;;;;;340.48;79.50;;;;;;;-0.07;55.20;102014.41;343361;28;1402;-67
2022/03/20 00:17:55;;;;;;;338.90;79.55;;;;;;;-0.06;55.04;102012.72;341778;28;1061;-67
2022/03/20 00:18:06;;;;;;;336.30;79.33;;;;;;;-0.07;55.10;102005.81;344656;28;1303;-68
2022/03/20 00:18:17;;;;;;;337.02;80.35;;;;;;;-0.10;55.34;102016.88;343751;28;928;-68
2022/03/20 00:18:27;;;;;;;337.13;80.20;;;;;;;-0.12;54.91;102012.47;344502;28;881;-67
2022/03/20 00:18:38;;;;;;;340.33;83.30;;;;;;;-0.10;55.18;102015.97;341877;28;903;-67
2022/03/20 00:18:48;;;;;;;339.15;81.93;;;;;;;-0.11;55.37;102014.22;343367;28;1370;-67
2022/03/20 00:18:59;;;;;;;339.60;83.63;;;;;;;-0.09;54.94;102010.03;343186;28;1208;-67
2022/03/20 00:19:09;;;;;;;337.80;80.95;;;;;;;-0.09;55.02;102017.75;342040;28;883;-67
2022/03/20 00:19:20;;;;;;;337.93;82.07;;;;;;;-0.08;55.10;102014.34;341587;28;889;-67
2022/03/20 00:19:31;;;;;;;339.15;81.35;;;;;;;-0.10;55.03;102010.84;342654;28;1232;-67
2022/03/20 00:19:42;;;;;;;340.75;81.55;;;;;;;-0.11;54.84;102015.09;342405;28;1672;-67
2022/03/20 00:19:52;;;;;;;339.33;80.32;;;;;;;-0.10;55.25;102018.56;342306;28;1123;-67
2022/03/20 00:20:04;;;;;;;339.52;81.35;;;;;;;-0.10;55.30;102008.25;337910;29;870;-67
2022/03/20 00:20:16;;;;;;;337.08;81.10;;;;;;;-0.10;55.02;102016.88;340602;28;1041;-67
2022/03/20 00:20:27;;;;;;;336.70;80.43;;;;;;;-0.10;54.84;102010.84;342100;28;960;-67
2022/03/20 00:20:38;;;;;;;336.93;80.43;;;;;;;-0.11;55.16;102016.81;343271;28;871;-67
2022/03/20 00:20:56;;;;;;;338.67;80.88;;;;;;;-0.15;55.83;102017.50;341410;28;933;-67
2022/03/20 00:21:07;;;;;;;338.38;79.05;;;;;;;-0.13;55.67;102010.72;344657;28;860;-67
2022/03/20 00:21:17;;;;;;;339.17;79.03;;;;;;;-0.13;55.73;102018.44;343057;28;1459;-67
2022/03/20 00:21:28;;;;;;;339.53;79.60;;;;;;;-0.14;55.77;102014.09;341935;28;2140;-67
2022/03/20 00:21:38;;;;;;;339.65;80.07;;;;;;;-0.13;55.53;102010.72;340294;29;1352;-67
2022/03/20 00:21:48;;;;;;;339.70;79.20;;;;;;;-0.14;55.39;102009.84;341860;28;1722;-67
2022/03/20 00:21:59;;;;;;;340.20;78.07;;;;;;;-0.14;55.36;102008.94;340949;28;1014;-67
2022/03/20 00:22:11;;;;;;;340.50;77.87;;;;;;;-0.12;55.27;102007.31;343295;28;988;-67
2022/03/20 00:22:21;;;;;;;341.95;78.40;;;;;;;-0.11;55.45;102011.66;342221;28;1494;-67
2022/03/20 00:22:34;;;;;;;342.55;79.95;;;;;;;-0.11;55.64;102006.50;341118;28;2154;-67
2022/03/20 00:22:44;;;;;;;341.92;80.70;;;;;;;-0.14;55.27;102014.09;341724;28;1303;-68
2022/03/20 00:22:56;;;;;;;340.40;82.03;;;;;;;-0.13;55.98;102011.59;340788;29;1613;-67
2022/03/20 00:23:08;;;;;;;339.42;80.18;;;;;;;-0.14;56.01;102011.53;343529;28;932;-67
2022/03/20 00:23:18;;;;;;;338.33;79.68;;;;;;;-0.14;55.84;102014.09;341869;28;2341;-67
2022/03/20 00:23:29;;;;;;;339.90;80.15;;;;;;;-0.14;55.08;102006.38;343370;28;853;-67
2022/03/20 00:23:39;;;;;;;340.77;81.83;;;;;;;-0.12;55.91;102012.47;344315;28;1508;-67
2022/03/20 00:23:50;;;;;;;341.88;82.22;;;;;;;-0.14;55.63;102008.94;341933;28;1369;-67
2022/03/20 00:24:01;;;;;;;342.30;82.50;;;;;;;-0.13;55.98;102010.72;342116;28;814;-67
2022/03/20 00:24:11;;;;;;;340.38;80.47;;;;;;;-0.14;56.16;102008.94;341929;28;1240;-67
2022/03/20 00:24:21;;;;;;;336.93;78.30;;;;;;;-0.14;55.40;102014.97;340626;29;886;-67
2022/03/20 00:24:32;;;;;;;336.27;76.90;;;;;;;-0.15;55.99;102009.78;340191;29;2033;-67
2022/03/20 00:24:43;;;;;;;336.85;78.50;;;;;;;-0.18;55.82;102009.63;338757;29;1895;-68
2022/03/20 00:24:53;;;;;;;339.00;79.93;;;;;;;-0.19;55.91;102001.03;339220;29;1805;-69
2022/03/20 00:25:04;;;;;;;339.63;83.20;;;;;;;-0.17;56.09;102008.81;337450;28;1215;-68
2022/03/20 00:25:16;;;;;;;338.67;82.22;;;;;;;-0.17;56.10;102003.69;337814;29;840;-69
2022/03/20 00:25:26;;;;;;;337.42;81.47;;;;;;;-0.15;56.12;102004.63;340610;29;1907;-69
2022/03/20 00:25:38;;;;;;;335.30;78.93;;;;;;;-0.15;55.64;101997.78;340521;29;982;-68
2022/03/20 00:25:48;;;;;;;336.48;79.57;;;;;;;-0.13;55.57;102003.00;339222;29;886;-68
2022/03/20 00:25:58;;;;;;;337.33;79.53;;;;;;;-0.11;55.99;101998.78;340712;29;830;-68
2022/03/20 00:26:09;;;;;;;338.83;80.55;;;;;;;-0.12;55.78;102000.47;340595;29;952;-68
2022/03/20 00:26:19;;;;;;;337.90;81.10;;;;;;;-0.11;56.46;102009.06;341945;28;1099;-69
2022/03/20 00:26:30;;;;;;;338.33;82.03;;;;;;;-0.11;55.69;102009.97;343283;28;1754;-69
2022/03/20 00:26:41;;;;;;;339.40;81.33;;;;;;;-0.10;56.01;102005.69;343339;28;1055;-69
2022/03/20 00:26:56;;;;;;;339.05;80.20;;;;;;;-0.11;55.67;102002.25;341858;28;986;-69
2022/03/20 00:27:16;;;;;;;338.20;79.18;;;;;;;-0.11;56.14;102007.38;340778;29;956;-69
2022/03/20 00:27:26;;;;;;;334.33;75.57;;;;;;;-0.14;56.28;102004.69;340634;29;948;-69
2022/03/20 00:27:37;;;;;;;334.90;76.67;;;;;;;-0.15;56.27;102000.34;343242;28;949;-68
2022/03/20 00:27:47;;;;;;;335.75;79.13;;;;;;;-0.16;55.79;102001.16;341975;28;941;-68
2022/03/20 00:27:57;;;;;;;337.20;81.90;;;;;;;-0.18;55.65;101997.66;341936;28;865;-68
2022/03/20 00:28:09;;;;;;;337.92;82.20;;;;;;;-0.18;56.12;101996.78;343136;28;1805;-68
2022/03/20 00:28:20;;;;;;;338.75;81.80;;;;;;;-0.18;56.47;102001.91;339073;29;1379;-68
2022/03/20 00:28:30;;;;;;;337.20;79.45;;;;;;;-0.19;56.22;102005.31;340851;28;1135;-68
2022/03/20 00:28:42;;;;;;;333.60;77.70;;;;;;;-0.19;56.08;102001.03;344143;28;1258;-68
2022/03/20 00:28:52;;;;;;;334.45;77.28;;;;;;;-0.20;56.11;102000.97;344668;28;1306;-68
2022/03/20 00:29:04;;;;;;;335.53;78.43;;;;;;;-0.20;56.38;102007.00;343046;28;1251;-68
2022/03/20 00:29:15;;;;;;;337.65;80.22;;;;;;;-0.21;56.02;102004.38;343283;28;1125;-68
2022/03/20 00:29:25;;;;;;;338.17;81.25;;;;;;;-0.20;56.26;102009.56;343938;28;2018;-68
2022/03/20 00:29:36;;;;;;;337.87;81.63;;;;;;;-0.21;56.56;102005.25;343118;28;1377;-68
2022/03/20 00:29:46;;;;;;;338.25;81.43;;;;;;;-0.23;56.16;102000.84;340325;29;1284;-68
2022/03/20 00:29:57;;;;;;;339.10;80.80;;;;;;;-0.22;56.74;102002.59;338490;29;1637;-68
2022/03/20 00:30:07;;;;;;;338.85;80.85;;;;;;;-0.22;56.48;102005.19;337262;29;897;-68
2022/03/20 00:30:18;;;;;;;338.48;80.55;;;;;;;-0.26;56.94;101998.16;342962;28;1744;-68
2022/03/20 00:30:28;;;;;;;337.30;80.33;;;;;;;-0.29;56.81;101993.75;343123;28;1306;-68
2022/03/20 00:30:39;;;;;;;338.13;80.20;;;;;;;-0.26;56.99;102013.59;341931;28;1231;-68
2022/03/20 00:30:49;;;;;;;337.57;79.23;;;;;;;-0.27;56.68;102001.53;342975;28;917;-68
2022/03/20 00:30:59;;;;;;;336.48;77.60;;;;;;;-0.29;56.57;102008.31;344535;28;1271;-68
2022/03/20 00:31:10;;;;;;;336.77;78.17;;;;;;;-0.27;56.64;102005.00;344506;28;888;-68
2022/03/20 00:31:20;;;;;;;335.38;78.35;;;;;;;-0.27;56.40;102001.53;340462;28;1547;-68
2022/03/20 00:31:33;;;;;;;336.67;80.00;;;;;;;-0.26;56.58;102003.28;338265;29;1721;-68
2022/03/20 00:31:43;;;;;;;339.55;80.32;;;;;;;-0.26;56.42;101998.16;341543;28;869;-68
2022/03/20 00:31:54;;;;;;;339.93;81.23;;;;;;;-0.24;56.85;102001.66;342252;28;1704;-68
2022/03/20 00:32:05;;;;;;;337.00;78.38;;;;;;;-0.23;57.05;102000.84;343347;28;890;-68
2022/03/20 00:32:16;;;;;;;336.10;79.07;;;;;;;-0.24;56.91;101996.53;343208;28;1291;-68
2022/03/20 00:32:27;;;;;;;336.65;79.60;;;;;;;-0.25;56.91;101999.91;340646;29;925;-68
2022/03/20 00:32:37;;;;;;;338.65;81.43;;;;;;;-0.28;56.84;101995.50;341900;28;1275;-68
2022/03/20 00:32:48;;;;;;;339.50;82.47;;;;;;;-0.29;56.95;102000.59;342037;28;870;-68
2022/03/20 00:32:58;;;;;;;339.50;82.87;;;;;;;-0.31;57.15;101991.94;342052;28;893;-68
2022/03/20 00:33:09;;;;;;;338.35;82.68;;;;;;;-0.30;57.08;101996.25;341841;28;992;-68
2022/03/20 00:33:19;;;;;;;338.00;81.47;;;;;;;-0.28;57.39;101999.78;339173;29;1007;-68
2022/03/20 00:33:29;;;;;;;338.23;80.60;;;;;;;-0.27;56.82;101993.81;342066;28;893;-69
2022/03/20 00:33:40;;;;;;;338.67;81.43;;;;;;;-0.26;57.35;101990.44;341874;28;912;-68
2022/03/20 00:33:50;;;;;;;337.88;81.28;;;;;;;-0.26;57.11;101998.16;343037;28;1204;-68
2022/03/20 00:34:01;;;;;;;337.20;81.07;;;;;;;-0.27;57.47;101997.28;343306;28;1284;-66
2022/03/20 00:34:11;;;;;;;338.10;80.38;;;;;;;-0.27;56.72;102001.53;340728;28;1929;-67
2022/03/20 00:34:21;;;;;;;338.03;79.90;;;;;;;-0.25;57.35;101994.75;338778;29;1084;-66
2022/03/20 00:34:32;;;;;;;338.17;79.72;;;;;;;-0.26;57.49;101998.16;339400;29;867;-68
2022/03/20 00:34:42;;;;;;;336.87;78.67;;;;;;;-0.25;57.26;102002.47;339182;29;1414;-68
2022/03/20 00:34:57;;;;;;;336.73;79.38;;;;;;;-0.25;57.36;101994.75;338309;29;1707;-68
2022/03/20 00:35:07;;;;;;;336.67;81.45;;;;;;;-0.25;57.17;101999.91;336061;29;1258;-68
2022/03/20 00:35:18;;;;;;;337.88;81.80;;;;;;;-0.26;57.34;101987.84;340567;28;1343;-68
2022/03/20 00:35:29;;;;;;;338.70;80.23;;;;;;;-0.24;57.26;101996.53;343316;28;1303;-68
2022/03/20 00:35:39;;;;;;;341.10;79.96;;;;;;;-0.24;57.03;101997.41;344244;28;905;-68
2022/03/20 00:35:50;;;;;;;340.57;80.37;;;;;;;-0.21;57.37;101994.06;343223;28;881;-68
2022/03/20 00:36:01;;;;;;;339.15;80.05;;;;;;;-0.22;56.77;102000.91;340592;29;1936;-68
2022/03/20 00:36:11;;;;;;;336.90;78.47;;;;;;;-0.20;57.65;101998.41;340523;29;890;-68
2022/03/20 00:36:21;;;;;;;335.23;77.80;;;;;;;-0.22;57.28;101995.78;341654;28;1196;-68
2022/03/20 00:36:35;;;;;;;334.38;77.68;;;;;;;-0.22;57.42;101997.47;341936;28;1314;-68
2022/03/20 00:36:46;;;;;;;334.75;78.60;;;;;;;-0.22;57.46;101994.88;341924;28;938;-68
2022/03/20 00:36:56;;;;;;;337.17;79.57;;;;;;;-0.21;57.29;102002.66;341779;28;974;-68
2022/03/20 00:37:07;;;;;;;337.80;80.82;;;;;;;-0.22;57.37;102000.91;345928;28;1066;-67
2022/03/20 00:37:17;;;;;;;338.63;81.70;;;;;;;-0.23;57.48;101998.28;344511;28;846;-67
2022/03/20 00:37:28;;;;;;;337.20;81.22;;;;;;;-0.25;57.28;101999.91;344653;28;1266;-67
2022/03/20 00:37:38;;;;;;;338.05;81.43;;;;;;;-0.27;57.49;101992.13;340680;28;1432;-67
2022/03/20 00:37:49;;;;;;;337.77;81.07;;;;;;;-0.26;57.14;101998.16;341738;28;1632;-67
2022/03/20 00:37:59;;;;;;;337.90;81.28;;;;;;;-0.26;57.28;101998.16;343281;28;1951;-67
2022/03/20 00:38:09;;;;;;;337.57;80.33;;;;;;;-0.23;57.12;101993.13;343167;28;1189;-67
2022/03/20 00:38:20;;;;;;;336.95;80.55;;;;;;;-0.25;57.10;101994.75;340469;29;877;-67
2022/03/20 00:38:30;;;;;;;337.03;80.67;;;;;;;-0.25;57.60;101999.91;340773;29;833;-67
2022/03/20 00:38:41;;;;;;;337.55;80.25;;;;;;;-0.25;57.53;102000.78;343030;28;1243;-66
2022/03/20 00:38:51;;;;;;;338.37;80.20;;;;;;;-0.25;57.40;101992.19;344420;28;2290;-66
2022/03/20 00:39:02;;;;;;;339.60;80.53;;;;;;;-0.24;57.13;101996.53;339155;29;1956;-66
2022/03/20 00:39:12;;;;;;;338.20;80.15;;;;;;;-0.23;57.79;101995.72;340637;29;1387;-66
2022/03/20 00:39:23;;;;;;;336.80;79.57;;;;;;;-0.23;57.51;101998.28;343035;28;1271;-66
2022/03/20 00:39:34;;;;;;;335.75;79.10;;;;;;;-0.23;57.38;101988.00;344224;28;1254;-67
2022/03/20 00:39:44;;;;;;;335.73;79.73;;;;;;;-0.22;57.12;101994.88;344014;28;1482;-67
2022/03/20 00:39:55;;;;;;;337.03;79.80;;;;;;;-0.23;57.06;101988.00;341713;28;877;-67
2022/03/20 00:40:06;;;;;;;338.45;80.95;;;;;;;-0.25;57.61;101994.75;339001;28;817;-68
2022/03/20 00:40:16;;;;;;;340.45;82.95;;;;;;;-0.25;57.44;101998.22;341726;28;2093;-68
2022/03/20 00:40:27;;;;;;;340.67;83.28;;;;;;;-0.26;57.32;101993.88;341942;28;1264;-67
2022/03/20 00:40:37;;;;;;;336.73;80.70;;;;;;;-0.25;57.08;101992.19;341622;28;5582;-67
2022/03/20 00:40:48;;;;;;;334.83;78.88;;;;;;;-0.28;57.26;101990.38;340509;29;1049;-67
2022/03/20 00:40:58;;;;;;;335.83;79.37;;;;;;;-0.27;57.69;101992.13;343380;28;1487;-67
2022/03/20 00:41:08;;;;;;;338.33;81.57;;;;;;;-0.28;57.60;101994.63;341825;28;1104;-67
2022/03/20 00:41:19;;;;;;;339.20;81.90;;;;;;;-0.30;57.05;101991.13;343261;28;1153;-67
2022/03/20 00:41:29;;;;;;;337.80;81.47;;;;;;;-0.27;57.54;102006.69;341728;28;1224;-67
2022/03/20 00:41:40;;;;;;;336.43;80.20;;;;;;;-0.29;57.31;101992.88;343050;28;1289;-67
2022/03/20 00:41:50;;;;;;;337.73;80.13;;;;;;;-0.29;57.33;101995.44;343259;28;1422;-68
2022/03/20 00:42:00;;;;;;;339.83;79.17;;;;;;;-0.31;57.27;101989.38;342135;28;946;-68
2022/03/20 00:42:11;;;;;;;339.55;79.40;;;;;;;-0.30;57.11;101988.53;341862;28;1264;-67
2022/03/20 00:42:21;;;;;;;339.93;79.63;;;;;;;-0.35;57.62;101989.22;340360;29;839;-67
2022/03/20 00:42:32;;;;;;;339.33;80.93;;;;;;;-0.34;57.34;101991.00;343261;28;1258;-67
2022/03/20 00:42:42;;;;;;;338.67;79.73;;;;;;;-0.32;57.74;101992.75;344454;28;1190;-68
2022/03/20 00:42:53;;;;;;;335.93;78.13;;;;;;;-0.32;57.19;101990.19;343240;28;959;-67
2022/03/20 00:43:04;;;;;;;334.07;76.43;;;;;;;-0.32;57.44;101992.75;341620;28;1896;-67
2022/03/20 00:43:14;;;;;;;336.83;79.07;;;;;;;-0.31;57.17;101994.50;340583;29;1259;-67
2022/03/20 00:43:25;;;;;;;339.40;81.40;;;;;;;-0.30;57.79;101991.13;343073;28;1489;-68
2022/03/20 00:43:36;;;;;;;340.37;82.17;;;;;;;-0.28;57.17;101989.50;341856;28;834;-67
2022/03/20 00:43:47;;;;;;;340.35;80.63;;;;;;;-0.31;57.49;101989.38;341517;28;1991;-67
2022/03/20 00:43:58;;;;;;;340.02;78.75;;;;;;;-0.35;57.04;101989.22;343272;28;1641;-67
2022/03/20 00:44:09;;;;;;;339.52;78.43;;;;;;;-0.35;57.62;101990.94;343398;28;1407;-67
2022/03/20 00:44:19;;;;;;;338.20;79.43;;;;;;;-0.34;57.68;101991.00;342375;28;1307;-67
2022/03/20 00:44:30;;;;;;;337.33;80.27;;;;;;;-0.34;57.43;101990.13;341785;28;1814;-67
2022/03/20 00:44:41;;;;;;;336.47;79.87;;;;;;;-0.35;57.47;101989.22;341472;28;1443;-67
2022/03/20 00:44:51;;;;;;;336.20;79.37;;;;;;;-0.37;56.91;101988.28;343770;28;1214;-67
2022/03/20 00:45:02;;;;;;;336.43;79.60;;;;;;;-0.39;57.51;101992.50;340105;28;1296;-68
2022/03/20 00:45:13;;;;;;;339.85;80.90;;;;;;;-0.37;57.51;101989.97;340735;28;1247;-67
2022/03/20 00:45:23;;;;;;;339.63;80.27;;;;;;;-0.37;57.13;101985.72;340677;29;926;-68
2022/03/20 00:45:34;;;;;;;340.83;80.35;;;;;;;-0.39;57.07;101989.91;340387;29;1982;-68
2022/03/20 00:45:44;;;;;;;337.03;79.83;;;;;;;-0.40;57.51;101990.72;341179;28;1323;-68
2022/03/20 00:45:54;;;;;;;336.48;79.65;;;;;;;-0.43;57.48;101995.75;343264;28;1268;-68
2022/03/20 00:46:05;;;;;;;336.47;79.97;;;;;;;-0.45;57.84;101991.38;341960;28;1230;-68
2022/03/20 00:46:15;;;;;;;339.10;80.90;;;;;;;-0.47;57.74;101993.91;341298;28;1092;-68
2022/03/20 00:46:27;;;;;;;338.53;80.07;;;;;;;-0.49;57.53;101990.38;340384;29;1058;-67
2022/03/20 00:46:37;;;;;;;337.88;79.72;;;;;;;-0.52;57.75;101990.25;340378;29;941;-67
2022/03/20 00:46:48;;;;;;;337.02;79.28;;;;;;;-0.53;57.85;101988.50;340778;28;1516;-67
2022/03/20 00:46:59;;;;;;;338.00;80.70;;;;;;;-0.54;57.67;101996.13;340067;28;2037;-66
2022/03/20 00:47:09;;;;;;;337.37;79.57;;;;;;;-0.54;57.62;101993.56;341871;28;1283;-66
2022/03/20 00:47:20;;;;;;;338.38;81.13;;;;;;;-0.55;57.99;101990.13;342739;28;1208;-66
2022/03/20 00:47:30;;;;;;;336.93;79.97;;;;;;;-0.60;58.22;101996.75;342600;28;1130;-66
2022/03/20 00:47:41;;;;;;;338.23;80.95;;;;;;;-0.60;58.12;101996.75;343093;28;870;-66
2022/03/20 00:47:51;;;;;;;337.27;78.63;;;;;;;-0.58;57.77;101992.56;343161;28;880;-66
2022/03/20 00:48:02;;;;;;;337.93;79.00;;;;;;;-0.57;57.16;101990.88;343321;28;995;-66
2022/03/20 00:48:12;;;;;;;339.40;80.20;;;;;;;-0.58;57.85;101995.13;344574;28;1694;-66
2022/03/20 00:48:23;;;;;;;339.63;81.17;;;;;;;-0.58;57.56;101992.56;344558;28;1263;-66
2022/03/20 00:48:33;;;;;;;339.77;82.47;;;;;;;-0.57;57.48;101991.75;341132;28;2704;-66
2022/03/20 00:48:43;;;;;;;340.33;82.43;;;;;;;-0.55;57.81;101990.13;340212;28;1781;-66
2022/03/20 00:48:54;;;;;;;340.10;83.20;;;;;;;-0.52;57.50;101994.50;340574;28;1212;-66
2022/03/20 00:49:05;;;;;;;338.97;81.97;;;;;;;-0.53;58.07;101988.50;344376;28;929;-66
2022/03/20 00:49:16;;;;;;;335.63;80.57;;;;;;;-0.52;57.78;101990.25;342963;28;1193;-66
2022/03/20 00:49:27;;;;;;;336.33;79.18;;;;;;;-0.53;57.66;101988.50;343098;28;957;-66
2022/03/20 00:49:37;;;;;;;338.80;80.50;;;;;;;-0.53;57.24;101991.06;341867;28;1058;-66
2022/03/20 00:49:47;;;;;;;339.42;80.80;;;;;;;-0.54;57.20;101986.72;339068;29;1547;-67
2022/03/20 00:49:58;;;;;;;337.20;82.13;;;;;;;-0.55;57.40;101990.13;336828;29;1506;-68
2022/03/20 00:50:08;;;;;;;335.65;80.45;;;;;;;-0.54;57.39;101991.88;338984;28;680;-67
2022/03/20 00:50:19;;;;;;;336.10;81.43;;;;;;;-0.53;57.50;101993.63;342176;28;1458;-67